Latest Weather Observations for Richmond

IDN60801

Issued at 9:35 am EST Saturday 23 August 2014 (issued every 30 minutes, with the page automatically refreshed every 10 minutes)

About weather observations | Map of weather stations | Latest weather observations for NSW | Other Formats
Station Details ID: 067105 Name: RICHMOND RAAF Lat: -33.60 Lon: 150.78 Height: 19.0 m
Data from the previous 72 hours. | See also: Recent months at Richmond
Date/Time
EST
Temp
°C
App
Temp
°C
Dew
Point
Rel
Hum
%
Delta-T
°C
Wind Press
QNH
hPa
Press
MSL
hPa
Rain
since 9 am
mm
Dir
 
Spd
km/h
Gust
km/h
Spd
kts
Gust
kts
23/09:30am 14.8 14.2 11.6 81 1.7 SE 6 11 3 6 1031.5 - 0.0
23/09:00am 13.6 13.3 11.3 86 1.2 WSW 4 7 2 4 1031.4 1031.5 0.2
23/08:30am 11.9 12.2 10.8 93 0.6 CALM 0 0 0 0 1031.5 - 0.2
23/08:00am 11.1 10.9 10.3 95 0.4 NW 2 7 1 4 1031.4 1031.5 0.2
23/07:30am 10.7 10.8 10.1 96 0.3 CALM 0 0 0 0 1031.1 - 0.2
23/07:00am 10.3 10.4 10.0 98 0.2 CALM 0 0 0 0 1030.8 1030.9 0.2
23/06:30am 10.0 10.0 9.7 98 0.2 CALM 0 0 0 0 1030.3 - 0.2
23/06:23am 9.9 9.8 9.4 97 0.2 CALM 0 0 0 0 1030.3 - 0.2
23/06:04am 9.7 9.2 9.2 97 0.2 SE 2 6 1 3 1030.2 - 0.2
23/06:00am 9.8 9.7 9.3 97 0.2 SE 0 0 0 0 1030.2 1030.3 0.2
23/05:30am 10.2 10.2 9.9 98 0.2 CALM 0 0 0 0 1029.8 - 0.2
23/05:07am 10.3 10.3 9.8 97 0.3 CALM 0 0 0 0 1029.6 - 0.2
23/05:00am 10.3 10.3 9.7 96 0.3 CALM 0 0 0 0 1029.5 1029.6 0.2
23/04:30am 10.5 9.4 10.0 97 0.3 NE 6 9 3 5 1029.5 - 0.2
23/04:00am 10.6 9.6 10.3 98 0.2 E 6 7 3 4 1029.5 1029.6 0.2
23/03:57am 10.4 9.3 10.1 98 0.2 ESE 6 7 3 4 1029.5 - 0.2
23/03:30am 10.1 10.0 9.5 96 0.3 CALM 0 0 0 0 1029.4 - 0.2
23/03:00am 10.3 10.2 9.5 95 0.4 CALM 0 0 0 0 1029.6 1029.7 0.2
23/02:56am 10.5 10.5 9.9 96 0.3 CALM 0 0 0 0 1029.6 - 0.2
23/02:54am 10.5 10.5 9.7 95 0.4 CALM 0 0 0 0 1029.6 - 0.2
23/02:30am 11.2 11.0 10.3 94 0.5 SE 2 7 1 4 1029.8 - 0.2
23/02:28am 11.2 10.6 10.3 94 0.5 SE 4 7 2 4 1029.8 - 0.2
23/02:11am 11.5 10.6 10.6 94 0.5 SE 6 7 3 4 1029.8 - 0.2
23/02:00am 11.8 11.6 10.5 92 0.7 ESE 2 7 1 4 1029.9 1030.0 0.0
23/01:30am 11.5 11.6 10.2 92 0.7 CALM 0 0 0 0 1030.3 - 0.0
23/01:00am 11.5 11.5 9.8 89 0.9 CALM 0 0 0 0 1030.5 1030.6 0.0
23/12:30am 11.6 10.9 10.2 91 0.7 S 4 7 2 4 1030.5 - 0.0
23/12:00am 11.7 10.6 10.1 90 0.8 SW 6 7 3 4 1030.6 1030.7 0.0
 
Date/Time
EST
Temp
°C
App
Temp
°C
Dew
Point
Rel
Hum
%
Delta-T
°C
Wind Press
QNH
hPa
Press
MSL
hPa
Rain
since 9 am
mm
Dir
 
Spd
km/h
Gust
km/h
Spd
kts
Gust
kts
22/11:30pm 11.4 10.3 10.0 91 0.7 SW 6 6 3 3 1030.7 - 0.0
22/11:00pm 11.3 11.0 10.0 92 0.7 NNW 2 6 1 3 1030.7 1030.8 0.0
22/10:30pm 11.4 10.1 9.8 90 0.8 SSW 7 9 4 5 1030.8 - 0.0
22/10:00pm 11.9 11.2 10.1 89 0.9 WSW 4 6 2 3 1030.9 1031.0 0.0
22/09:30pm 11.5 10.3 9.6 88 1.0 WSW 6 6 3 3 1030.9 - 0.0
22/09:00pm 12.4 11.1 10.1 86 1.2 SW 7 9 4 5 1030.9 1031.0 0.0
22/08:30pm 12.2 10.9 10.1 87 1.1 SSW 7 7 4 4 1030.8 - 0.0
22/08:00pm 12.2 10.8 9.6 84 1.3 SSW 7 9 4 5 1030.6 1030.7 0.0
22/07:30pm 12.5 10.8 10.0 85 1.3 SSW 9 11 5 6 1030.5 - 0.0
22/07:00pm 12.9 11.0 9.2 78 1.9 SE 9 9 5 5 1030.2 1030.3 0.0
22/06:30pm 14.0 11.9 9.6 75 2.3 SE 11 13 6 7 1029.8 - 0.0
22/06:00pm 14.5 11.9 9.5 72 2.6 ESE 13 17 7 9 1029.3 1029.4 0.0
22/05:30pm 14.9 12.0 9.7 71 2.7 ESE 15 19 8 10 1029.0 - 0.0
22/05:00pm 16.0 13.6 9.9 67 3.2 ESE 13 19 7 10 1028.8 1028.9 0.0
22/04:30pm 16.8 14.3 9.7 63 3.7 SE 13 19 7 10 1028.5 - 0.0
22/04:00pm 18.2 16.4 9.5 57 4.5 WSW 9 11 5 6 1028.4 1028.5 0.0
22/03:30pm 17.6 15.9 10.0 61 4.0 SW 9 13 5 7 1028.3 - 0.0
22/03:00pm 17.3 15.4 9.2 59 4.2 SSW 9 13 5 7 1028.5 1028.6 0.0
22/02:30pm 17.7 16.0 9.8 60 4.2 SW 9 13 5 7 1028.6 - 0.0
22/02:00pm 17.4 15.6 9.6 60 4.1 SW 9 15 5 8 1028.8 1028.9 0.0
22/01:30pm 16.9 15.2 9.8 63 3.7 SW 9 11 5 6 1029.2 - 0.0
22/01:00pm 16.8 14.6 9.5 62 3.8 SSE 11 15 6 8 1029.5 1029.6 0.0
22/12:30pm 18.6 17.7 10.7 60 4.3 NNW 6 9 3 5 1029.8 - 0.0
22/12:00pm 17.0 15.7 10.1 64 3.6 ESE 7 11 4 6 1030.4 1030.5 0.0
22/11:30am 17.3 15.8 10.7 65 3.5 SSE 9 13 5 7 1031.0 - 0.0
22/11:00am 16.0 14.5 10.5 70 2.9 SSE 9 13 5 7 1031.5 1031.6 0.0
22/10:30am 15.8 14.0 10.8 72 2.7 SSE 11 19 6 10 1031.9 - 0.0
22/10:00am 15.3 13.5 10.9 75 2.3 S 11 17 6 9 1032.1 1032.2 0.0
22/09:30am 14.5 14.2 11.3 81 1.7 SSW 4 9 2 5 1032.0 - 0.0
22/09:00am 13.6 12.9 11.3 86 1.2 SSW 6 7 3 4 1032.0 1032.1 2.8
22/08:30am 12.8 13.1 11.0 89 0.9 CALM 0 0 0 0 1031.9 - 2.8
22/08:00am 12.2 12.5 10.9 92 0.7 CALM 0 0 0 0 1031.6 1031.7 2.8
22/07:30am 11.8 12.1 10.9 94 0.5 CALM 0 0 0 0 1031.3 - 2.8
22/07:00am 11.6 11.9 11.0 96 0.3 CALM 0 0 0 0 1030.9 1031.0 2.8
22/06:30am 11.4 10.5 10.8 96 0.3 W 6 7 3 4 1030.5 - 2.8
22/06:00am 11.3 9.9 10.8 97 0.3 W 9 9 5 5 1030.2 1030.3 2.8
22/05:30am 11.3 9.9 11.0 98 0.2 W 9 13 5 7 1030.0 - 2.8
22/05:00am 11.2 9.4 10.7 97 0.3 WNW 11 13 6 7 1029.9 1030.0 2.8
22/04:58am 11.2 9.4 10.7 97 0.3 WNW 11 13 6 7 1029.9 - 2.8
22/04:43am 11.2 10.1 10.7 97 0.3 WNW 7 9 4 5 1029.9 - 2.8
22/04:42am 11.2 10.1 10.7 97 0.3 WNW 7 9 4 5 1029.9 - 2.8
22/04:30am 11.2 10.1 10.7 97 0.3 W 7 9 4 5 1029.9 - 2.8
22/04:00am 11.3 11.6 10.8 97 0.3 CALM 0 0 0 0 1029.9 1030.0 2.4
22/03:55am 11.3 11.6 10.8 97 0.3 CALM 0 0 0 0 1029.8 - 2.4
22/03:30am 11.4 11.3 10.9 97 0.3 W 2 6 1 3 1029.7 - 2.4
22/03:00am 11.2 11.4 10.7 97 0.3 CALM 0 0 0 0 1029.6 1029.7 2.4
22/02:59am 11.2 11.4 10.7 97 0.3 CALM 0 0 0 0 1029.6 - 2.4
22/02:43am 11.3 11.6 10.8 97 0.3 CALM 0 0 0 0 1029.7 - 2.4
22/02:30am 11.3 11.5 10.7 96 0.3 CALM 0 0 0 0 1029.8 - 2.2
22/02:00am 11.2 10.1 10.7 97 0.3 W 7 9 4 5 1029.9 1030.0 2.2
22/01:30am 11.3 11.5 10.5 95 0.4 CALM 0 0 0 0 1030.3 - 2.2
22/01:05am 11.4 11.6 10.5 94 0.5 CALM 0 0 0 0 1030.4 - 2.2
22/01:00am 11.4 11.6 10.6 95 0.4 CALM 0 0 0 0 1030.4 1030.5 2.2
22/12:52am 11.4 11.3 10.8 96 0.3 SSE 2 7 1 4 1030.5 - 2.2
22/12:30am 11.1 10.9 10.5 96 0.3 W 2 7 1 4 1030.5 - 2.2
22/12:00am 11.3 11.5 10.5 95 0.4 CALM 0 0 0 0 1030.5 1030.6 1.8
 
Date/Time
EST
Temp
°C
App
Temp
°C
Dew
Point
Rel
Hum
%
Delta-T
°C
Wind Press
QNH
hPa
Press
MSL
hPa
Rain
since 9 am
mm
Dir
 
Spd
km/h
Gust
km/h
Spd
kts
Gust
kts
21/11:30pm 11.5 11.7 10.4 93 0.6 CALM 0 0 0 0 1030.7 - 1.8
21/11:00pm 11.5 10.4 10.7 95 0.4 WSW 7 9 4 5 1030.5 1030.6 1.6
21/10:30pm 11.6 10.5 10.7 94 0.5 SW 7 9 4 5 1030.4 - 1.6
21/10:21pm 11.6 10.5 10.7 94 0.5 SSW 7 11 4 6 1030.3 - 1.6
21/10:00pm 11.7 10.3 10.8 94 0.5 S 9 13 5 7 1030.5 1030.6 1.2
21/09:55pm 11.7 10.3 10.8 94 0.5 SSW 9 13 5 7 1030.5 - 1.0
21/09:30pm 12.0 10.5 10.7 92 0.7 SSW 9 13 5 7 1030.3 - 0.6
21/09:00pm 12.2 10.0 10.8 91 0.7 SSW 13 20 7 11 1030.1 1030.2 0.4
21/08:30pm 12.7 10.8 10.6 87 1.1 SSW 11 15 6 8 1030.0 - 0.4
21/08:17pm 12.7 11.2 10.4 86 1.2 SSW 9 13 5 7 1029.9 - 0.4
21/08:02pm 13.0 11.5 10.4 84 1.3 S 9 13 5 7 1029.9 - 0.0
21/08:00pm 13.2 11.3 10.4 83 1.4 S 11 15 6 8 1029.9 1030.0 0.0
21/07:30pm 14.0 11.9 9.6 75 2.3 S 11 15 6 8 1029.7 - 0.0
21/07:00pm 14.2 12.4 9.6 74 2.3 S 9 13 5 7 1029.3 1029.4 0.0
21/06:30pm 14.2 12.0 9.4 73 2.5 S 11 15 6 8 1029.0 - 0.0
21/06:00pm 14.2 12.3 9.0 71 2.6 S 9 15 5 8 1028.5 1028.6 0.0
21/05:30pm 15.0 11.8 8.5 65 3.3 SSE 15 22 8 12 1028.1 - 0.0
21/05:00pm 15.8 12.1 8.1 60 3.9 SSE 17 26 9 14 1027.7 1027.7 0.0
21/04:30pm 16.6 11.4 7.3 54 4.6 SE 24 30 13 16 1027.3 - 0.0
21/04:00pm 17.0 12.7 7.9 55 4.6 SSE 20 28 11 15 1026.9 1026.9 0.0
21/03:30pm 16.8 12.0 7.4 54 4.7 SE 22 30 12 16 1026.8 - 0.0
21/03:00pm 16.7 11.6 7.6 55 4.5 SE 24 35 13 19 1026.6 1026.6 0.0
21/02:30pm 17.1 12.0 7.5 53 4.8 SE 24 37 13 20 1026.6 - 0.0
21/02:00pm 16.8 13.2 8.2 57 4.3 SSE 17 22 9 12 1026.8 1026.8 0.0
21/01:30pm 16.6 15.5 9.8 64 3.6 ESE 6 11 3 6 1027.0 - 0.0
21/01:00pm 16.1 12.9 9.8 66 3.3 SSW 17 24 9 13 1027.5 1027.5 0.0
21/12:30pm 16.5 13.4 9.0 61 3.9 SSE 15 22 8 12 1027.8 - 0.0
21/12:00pm 17.1 15.4 10.0 63 3.7 ESE 9 17 5 9 1028.2 1028.2 0.0
21/11:30am 16.4 15.3 10.5 68 3.1 SSE 7 13 4 7 1028.9 - 0.0
21/11:00am 14.9 13.2 9.9 72 2.6 S 9 15 5 8 1029.2 1029.3 0.0
21/10:30am 14.4 11.8 9.4 72 2.6 S 13 19 7 10 1029.4 - 0.0
21/10:00am 14.6 12.3 10.6 77 2.1 SSW 13 20 7 11 1029.5 1029.6 0.0
21/09:30am 13.2 10.3 9.5 78 1.9 SSW 15 20 8 11 1029.6 - 0.0
21/09:00am 12.5 10.4 9.7 83 1.4 SW 11 15 6 8 1029.6 1029.7 0.2
21/08:30am 10.8 10.6 8.9 88 0.9 CALM 0 0 0 0 1029.5 - 0.2
21/08:00am 9.9 8.4 8.5 91 0.7 NNW 6 7 3 4 1029.2 1029.3 0.2
21/07:47am 9.7 9.0 8.5 92 0.6 N 2 7 1 4 1029.1 - 0.2
21/07:33am 9.4 9.0 8.2 92 0.6 CALM 0 0 0 0 1029.1 - 0.2
21/07:30am 9.3 8.8 7.9 91 0.7 CALM 0 0 0 0 1029.1 - 0.2
21/07:00am 9.3 8.8 7.7 90 0.8 CALM 0 0 0 0 1028.7 1028.8 0.0
21/06:30am 9.0 8.4 7.6 91 0.7 CALM 0 6 0 3 1028.5 - 0.0
21/06:00am 8.7 6.8 7.5 92 0.6 WNW 7 11 4 6 1028.2 1028.2 0.0
21/05:30am 8.9 6.7 7.8 93 0.5 WNW 9 11 5 6 1027.8 - 0.0
21/05:24am 8.9 7.3 7.8 93 0.5 NW 6 11 3 6 1027.9 - 0.0
21/05:05am 8.9 7.3 7.8 93 0.5 ENE 6 7 3 4 1028.0 - 0.0
21/05:00am 9.0 7.4 7.8 92 0.6 ENE 6 9 3 5 1028.0 1028.0 0.0
21/04:30am 8.9 7.3 7.8 93 0.5 NE 6 9 3 5 1027.7 - 0.0
21/04:00am 8.7 7.0 7.6 93 0.5 ENE 6 9 3 5 1027.6 1027.6 0.0
21/03:30am 8.5 7.9 7.3 92 0.6 CALM 0 0 0 0 1027.5 - 0.0
21/03:00am 8.4 7.7 7.0 91 0.6 CALM 0 0 0 0 1027.2 1027.2 0.0
21/02:30am 8.2 7.5 7.0 92 0.6 CALM 0 0 0 0 1027.2 - 0.0
21/02:00am 7.9 7.2 7.0 94 0.4 CALM 0 0 0 0 1027.4 1027.4 0.0
21/01:30am 7.4 5.5 6.5 94 0.4 ENE 6 7 3 4 1027.4 - 0.0
21/01:00am 6.2 5.1 5.0 92 0.5 CALM 0 0 0 0 1027.5 1027.5 0.0
21/12:30am 6.8 5.8 5.4 91 0.6 CALM 0 0 0 0 1027.5 - 0.0
21/12:00am 7.7 6.8 6.2 90 0.7 CALM 0 0 0 0 1027.4 1027.4 0.0
 
Date/Time
EST
Temp
°C
App
Temp
°C
Dew
Point
Rel
Hum
%
Delta-T
°C
Wind Press
QNH
hPa
Press
MSL
hPa
Rain
since 9 am
mm
Dir
 
Spd
km/h
Gust
km/h
Spd
kts
Gust
kts
20/11:30pm 7.6 5.3 5.7 88 0.9 W 7 9 4 5 1027.3 - 0.0
20/11:00pm 7.8 5.4 5.1 83 1.2 WSW 7 9 4 5 1027.3 1027.3 0.0
20/10:30pm 9.0 6.4 6.1 82 1.3 WSW 9 11 5 6 1027.4 - 0.0
20/10:00pm 9.3 6.7 6.0 80 1.5 SW 9 11 5 6 1027.3 1027.3 0.0
20/09:30pm 10.2 7.7 6.5 78 1.7 WSW 9 13 5 7 1027.4 - 0.0
20/09:00pm 10.3 7.8 6.5 77 1.8 WSW 9 11 5 6 1027.3 1027.3 0.0
20/08:30pm 11.0 8.5 6.6 74 2.1 SW 9 11 5 6 1027.1 - 0.0
20/08:00pm 11.8 9.2 6.3 69 2.6 SW 9 11 5 6 1026.7 1026.7 0.0
20/07:30pm 12.3 9.9 6.8 69 2.6 WSW 9 9 5 5 1026.6 - 0.0
20/07:00pm 12.6 10.5 6.6 67 2.8 SW 7 7 4 4 1026.3 1026.3 0.0
20/06:30pm 13.4 11.3 6.5 63 3.3 SSE 7 9 4 5 1026.0 - 0.0
20/06:00pm 13.6 11.0 6.2 61 3.5 SSE 9 11 5 6 1025.7 1025.7 0.0
20/05:30pm 13.5 10.1 6.1 61 3.5 SE 13 15 7 8 1025.2 - 0.0
20/05:00pm 15.1 10.5 6.4 56 4.2 SE 20 24 11 13 1024.8 1024.8 0.0
20/04:30pm 15.7 12.0 6.4 54 4.5 ESE 15 19 8 10 1024.5 - 0.0
20/04:00pm 16.0 11.4 6.4 53 4.7 ESE 20 26 11 14 1024.3 1024.3 0.0
20/03:30pm 16.0 11.6 6.4 53 4.7 SE 19 22 10 12 1024.2 - 0.0
20/03:00pm 16.4 12.4 6.8 53 4.7 ESE 17 24 9 13 1024.1 1024.1 0.0
20/02:30pm 16.3 12.2 6.4 52 4.8 SE 17 22 9 12 1023.9 - 0.0
20/02:00pm 16.5 13.6 6.6 52 4.8 SSE 11 17 6 9 1023.8 1023.8 0.0
20/01:30pm 16.3 13.4 6.4 52 4.8 E 11 20 6 11 1023.9 - 0.0
20/01:00pm 16.5 13.5 6.1 50 5.0 SSE 11 17 6 9 1024.1 1024.1 0.0
20/12:30pm 15.9 11.7 5.8 51 4.9 S 17 26 9 14 1024.4 - 0.0
20/12:00pm 15.7 12.0 6.2 53 4.6 SSE 15 20 8 11 1024.9 1024.9 0.0
20/11:30am 16.0 12.3 6.4 53 4.7 SSE 15 20 8 11 1025.1 - 0.0
20/11:00am 15.5 11.1 6.5 55 4.4 SSE 19 24 10 13 1025.3 1025.3 0.0
20/10:30am 14.9 10.9 6.5 57 4.1 S 17 28 9 15 1025.3 - 0.0
20/10:00am 14.4 9.6 5.5 55 4.2 S 20 28 11 15 1025.3 1025.3 0.0

Other Formats:

Comma delimited format used in spreadsheet applications
http://www.bom.gov.au/fwo/IDN60801/IDN60801.95753.axf

JavaScript Object Notation format (JSON) in row-major order
http://www.bom.gov.au/fwo/IDN60801/IDN60801.95753.json